XBRLQ MMCU-MMCS
Flight info
| Callsign | XBRLQ |
|---|---|
| Flight time | 1h 36m |
| Altitude | 8500 |
| Route | DCT MMCS |
| Aircraft | C172/L-S/C |
Departure
| Time | 2026-04-16 22:19 |
|---|---|
| Airport | General Roberto Fierro Villalobos International Airport (MMCU) |
Arrival
| Time | 2026-04-16 23:55 |
|---|---|
| Airport | Abraham González International Airport (MMCS) |
| Time | Latitude | Longitude | Altitude | Speed | Heading |
|---|---|---|---|---|---|
| 2026-04-16 22:06 | 28.70163 | -105.96885 | 4442 ft | 0 kts | 188° |
| 2026-04-16 22:14 | 28.70152 | -105.96882 | 4442 ft | 8 kts | 146° |
| 2026-04-16 22:14 | 28.70132 | -105.96799 | 4442 ft | 4 kts | 100° |
| 2026-04-16 22:14 | 28.70131 | -105.96790 | 4442 ft | 0 kts | 99° |
| 2026-04-16 22:15 | 28.70106 | -105.96779 | 4442 ft | 10 kts | 194° |
| 2026-04-16 22:15 | 28.70037 | -105.96794 | 4444 ft | 11 kts | 190° |
| 2026-04-16 22:16 | 28.69965 | -105.96810 | 4446 ft | 8 kts | 188° |
| 2026-04-16 22:16 | 28.69956 | -105.96756 | 4445 ft | 13 kts | 57° |
| 2026-04-16 22:16 | 28.70017 | -105.96652 | 4443 ft | 16 kts | 55° |
| 2026-04-16 22:16 | 28.70073 | -105.96621 | 4442 ft | 0 kts | 11° |
| 2026-04-16 22:18 | 28.70174 | -105.96599 | 4441 ft | 37 kts | 11° |
| 2026-04-16 22:18 | 28.70561 | -105.96515 | 4433 ft | 75 kts | 11° |
| 2026-04-16 22:18 | 28.71144 | -105.96386 | 4496 ft | 92 kts | 11° |
| 2026-04-16 22:19 | 28.71782 | -105.96242 | 4646 ft | 95 kts | 10° |
| 2026-04-16 22:19 | 28.72431 | -105.96102 | 4841 ft | 93 kts | 10° |
| 2026-04-16 22:19 | 28.73073 | -105.96034 | 5013 ft | 92 kts | 339° |
| 2026-04-16 22:19 | 28.73389 | -105.96619 | 5206 ft | 86 kts | 279° |
| 2026-04-16 22:20 | 28.73511 | -105.97329 | 5289 ft | 97 kts | 280° |
| 2026-04-16 22:20 | 28.73630 | -105.98104 | 5408 ft | 101 kts | 279° |
| 2026-04-16 22:20 | 28.73746 | -105.98911 | 5537 ft | 105 kts | 279° |
| 2026-04-16 22:20 | 28.73774 | -105.99758 | 5624 ft | 108 kts | 267° |
| 2026-04-16 22:21 | 28.73778 | -106.00324 | 5716 ft | 106 kts | 273° |
| 2026-04-16 22:21 | 28.73827 | -106.01156 | 5864 ft | 104 kts | 274° |
| 2026-04-16 22:21 | 28.73895 | -106.02234 | 6058 ft | 102 kts | 274° |
| 2026-04-16 22:21 | 28.73930 | -106.02772 | 6157 ft | 100 kts | 274° |
| 2026-04-16 22:22 | 28.73997 | -106.03810 | 6352 ft | 98 kts | 274° |
| 2026-04-16 22:22 | 28.74031 | -106.04326 | 6448 ft | 98 kts | 274° |
| 2026-04-16 22:22 | 28.74080 | -106.05088 | 6596 ft | 96 kts | 274° |
| 2026-04-16 22:22 | 28.74130 | -106.05849 | 6744 ft | 96 kts | 274° |
| 2026-04-16 22:23 | 28.74180 | -106.06609 | 6891 ft | 96 kts | 274° |
| 2026-04-16 22:23 | 28.74230 | -106.07364 | 7041 ft | 95 kts | 274° |
| 2026-04-16 22:23 | 28.74278 | -106.08113 | 7189 ft | 94 kts | 274° |
| 2026-04-16 22:23 | 28.74326 | -106.08855 | 7326 ft | 95 kts | 274° |
| 2026-04-16 22:24 | 28.74373 | -106.09614 | 7432 ft | 99 kts | 274° |
| 2026-04-16 22:24 | 28.74423 | -106.10412 | 7526 ft | 101 kts | 274° |
| 2026-04-16 22:24 | 28.74530 | -106.11204 | 7618 ft | 103 kts | 292° |
| 2026-04-16 22:24 | 28.75054 | -106.11805 | 7576 ft | 114 kts | 324° |
| 2026-04-16 22:25 | 28.75746 | -106.12349 | 7488 ft | 126 kts | 325° |
| 2026-04-16 22:25 | 28.76486 | -106.12910 | 7402 ft | 132 kts | 326° |
| 2026-04-16 22:25 | 28.77266 | -106.13498 | 7309 ft | 135 kts | 326° |
| 2026-04-16 22:25 | 28.78059 | -106.14094 | 7215 ft | 137 kts | 326° |
| 2026-04-16 22:26 | 28.78857 | -106.14692 | 7118 ft | 137 kts | 326° |
| 2026-04-16 22:26 | 28.79644 | -106.15282 | 7023 ft | 137 kts | 326° |
| 2026-04-16 22:26 | 28.80446 | -106.15882 | 6929 ft | 137 kts | 326° |
| 2026-04-16 22:26 | 28.81257 | -106.16452 | 6873 ft | 134 kts | 328° |
| 2026-04-16 22:27 | 28.82037 | -106.17051 | 6764 ft | 137 kts | 323° |
| 2026-04-16 22:27 | 28.82781 | -106.17659 | 6875 ft | 126 kts | 324° |
| 2026-04-16 22:27 | 28.83474 | -106.18222 | 6990 ft | 119 kts | 323° |
| 2026-04-16 22:27 | 28.84140 | -106.18760 | 7107 ft | 115 kts | 324° |
| 2026-04-16 22:28 | 28.84784 | -106.19280 | 7225 ft | 114 kts | 324° |
| 2026-04-16 22:28 | 28.85421 | -106.19795 | 7345 ft | 111 kts | 324° |
| 2026-04-16 22:28 | 28.86049 | -106.20300 | 7466 ft | 110 kts | 324° |
| 2026-04-16 22:28 | 28.86672 | -106.20801 | 7588 ft | 109 kts | 324° |
| 2026-04-16 22:29 | 28.87289 | -106.21299 | 7708 ft | 108 kts | 324° |
| 2026-04-16 22:29 | 28.87893 | -106.21785 | 7830 ft | 105 kts | 324° |
| 2026-04-16 22:29 | 28.88487 | -106.22264 | 7951 ft | 104 kts | 324° |
| 2026-04-16 22:29 | 28.89064 | -106.22729 | 8071 ft | 102 kts | 324° |
| 2026-04-16 22:30 | 28.89645 | -106.23197 | 8194 ft | 102 kts | 324° |
| 2026-04-16 22:30 | 28.90221 | -106.23661 | 8315 ft | 100 kts | 323° |
| 2026-04-16 22:30 | 28.90788 | -106.24116 | 8438 ft | 99 kts | 324° |
| 2026-04-16 22:30 | 28.91347 | -106.24565 | 8559 ft | 97 kts | 324° |
| 2026-04-16 22:31 | 28.91896 | -106.25005 | 8681 ft | 97 kts | 324° |
| 2026-04-16 22:31 | 28.92449 | -106.25449 | 8805 ft | 97 kts | 324° |
| 2026-04-16 22:31 | 28.93002 | -106.25893 | 8929 ft | 97 kts | 324° |
| 2026-04-16 22:31 | 28.93553 | -106.26335 | 9055 ft | 97 kts | 324° |
| 2026-04-16 22:32 | 28.94110 | -106.26782 | 9178 ft | 98 kts | 324° |
| 2026-04-16 22:32 | 28.94654 | -106.27219 | 9302 ft | 96 kts | 324° |
| 2026-04-16 22:32 | 28.95206 | -106.27662 | 9426 ft | 97 kts | 324° |
| 2026-04-16 22:32 | 28.95762 | -106.28109 | 9551 ft | 97 kts | 324° |
| 2026-04-16 22:33 | 28.96308 | -106.28548 | 9674 ft | 95 kts | 323° |
| 2026-04-16 22:33 | 28.96850 | -106.28984 | 9802 ft | 96 kts | 324° |
| 2026-04-16 22:33 | 28.97392 | -106.29418 | 9922 ft | 96 kts | 324° |
| 2026-04-16 22:33 | 28.97940 | -106.29857 | 10048 ft | 96 kts | 324° |
| 2026-04-16 22:34 | 28.98485 | -106.30295 | 10172 ft | 95 kts | 324° |
| 2026-04-16 22:34 | 28.99028 | -106.30731 | 10290 ft | 95 kts | 324° |
| 2026-04-16 22:34 | 28.99588 | -106.31179 | 10339 ft | 103 kts | 324° |
| 2026-04-16 22:34 | 29.00210 | -106.31649 | 10358 ft | 110 kts | 330° |
| 2026-04-16 22:35 | 29.00925 | -106.31903 | 10425 ft | 111 kts | 355° |
| 2026-04-16 22:35 | 29.01687 | -106.31931 | 10505 ft | 109 kts | 356° |
| 2026-04-16 22:35 | 29.02448 | -106.31967 | 10565 ft | 110 kts | 356° |
| 2026-04-16 22:35 | 29.03237 | -106.32006 | 10535 ft | 118 kts | 356° |
| 2026-04-16 22:36 | 29.04085 | -106.32053 | 10472 ft | 125 kts | 356° |
| 2026-04-16 22:36 | 29.04967 | -106.32101 | 10405 ft | 128 kts | 356° |
| 2026-04-16 22:36 | 29.05857 | -106.32151 | 10348 ft | 130 kts | 356° |
| 2026-04-16 22:36 | 29.06750 | -106.32200 | 10348 ft | 127 kts | 356° |
| 2026-04-16 22:37 | 29.07632 | -106.32248 | 10349 ft | 126 kts | 356° |
| 2026-04-16 22:37 | 29.08507 | -106.32295 | 10347 ft | 126 kts | 356° |
| 2026-04-16 22:37 | 29.09377 | -106.32342 | 10345 ft | 124 kts | 356° |
| 2026-04-16 22:37 | 29.10241 | -106.32389 | 10346 ft | 124 kts | 356° |
| 2026-04-16 22:38 | 29.11099 | -106.32435 | 10347 ft | 125 kts | 356° |
| 2026-04-16 22:38 | 29.11973 | -106.32481 | 10348 ft | 126 kts | 356° |
| 2026-04-16 22:38 | 29.12851 | -106.32528 | 10347 ft | 126 kts | 356° |
| 2026-04-16 22:38 | 29.13726 | -106.32576 | 10345 ft | 125 kts | 356° |
| 2026-04-16 22:39 | 29.14582 | -106.32621 | 10346 ft | 124 kts | 356° |
| 2026-04-16 22:39 | 29.15447 | -106.32668 | 10344 ft | 125 kts | 356° |
| 2026-04-16 22:39 | 29.16311 | -106.32713 | 10345 ft | 124 kts | 356° |
| 2026-04-16 22:39 | 29.17174 | -106.32759 | 10343 ft | 124 kts | 356° |
| 2026-04-16 22:40 | 29.18040 | -106.32805 | 10344 ft | 124 kts | 356° |
| 2026-04-16 22:40 | 29.18903 | -106.32851 | 10343 ft | 124 kts | 356° |
| 2026-04-16 22:40 | 29.19754 | -106.32896 | 10344 ft | 124 kts | 356° |
| 2026-04-16 22:40 | 29.20617 | -106.32942 | 10343 ft | 124 kts | 356° |
| 2026-04-16 22:41 | 29.21480 | -106.32988 | 10343 ft | 124 kts | 356° |
| 2026-04-16 22:41 | 29.22342 | -106.33034 | 10344 ft | 124 kts | 356° |
| 2026-04-16 22:41 | 29.23196 | -106.33080 | 10344 ft | 124 kts | 356° |
| 2026-04-16 22:41 | 29.24065 | -106.33126 | 10344 ft | 124 kts | 356° |
| 2026-04-16 22:42 | 29.24935 | -106.33172 | 10345 ft | 125 kts | 356° |
| 2026-04-16 22:42 | 29.25802 | -106.33218 | 10345 ft | 125 kts | 356° |
| 2026-04-16 22:42 | 29.26663 | -106.33264 | 10346 ft | 125 kts | 356° |
| 2026-04-16 22:42 | 29.27531 | -106.33311 | 10345 ft | 125 kts | 356° |
| 2026-04-16 22:43 | 29.28399 | -106.33357 | 10345 ft | 125 kts | 356° |
| 2026-04-16 22:43 | 29.29265 | -106.33403 | 10343 ft | 124 kts | 356° |
| 2026-04-16 22:43 | 29.30126 | -106.33449 | 10343 ft | 124 kts | 356° |
| 2026-04-16 22:43 | 29.30984 | -106.33494 | 10342 ft | 123 kts | 356° |
| 2026-04-16 22:44 | 29.31842 | -106.33539 | 10344 ft | 124 kts | 356° |
| 2026-04-16 22:44 | 29.32705 | -106.33585 | 10343 ft | 124 kts | 356° |
| 2026-04-16 22:44 | 29.33561 | -106.33632 | 10343 ft | 124 kts | 356° |
| 2026-04-16 22:44 | 29.34428 | -106.33678 | 10344 ft | 125 kts | 356° |
| 2026-04-16 22:45 | 29.35296 | -106.33724 | 10343 ft | 124 kts | 356° |
| 2026-04-16 22:45 | 29.36149 | -106.33769 | 10345 ft | 125 kts | 356° |
| 2026-04-16 22:45 | 29.37018 | -106.33816 | 10345 ft | 125 kts | 356° |
| 2026-04-16 22:45 | 29.37885 | -106.33862 | 10345 ft | 125 kts | 356° |
| 2026-04-16 22:46 | 29.38753 | -106.33907 | 10346 ft | 125 kts | 356° |
| 2026-04-16 22:46 | 29.39622 | -106.33953 | 10346 ft | 125 kts | 356° |
| 2026-04-16 22:46 | 29.40495 | -106.33999 | 10347 ft | 126 kts | 356° |
| 2026-04-16 22:46 | 29.41368 | -106.34045 | 10348 ft | 126 kts | 356° |
| 2026-04-16 22:47 | 29.42245 | -106.34092 | 10348 ft | 126 kts | 356° |
| 2026-04-16 22:47 | 29.43121 | -106.34139 | 10349 ft | 127 kts | 356° |
| 2026-04-16 22:47 | 29.43991 | -106.34186 | 10348 ft | 126 kts | 356° |
| 2026-04-16 22:47 | 29.44867 | -106.34234 | 10348 ft | 126 kts | 356° |
| 2026-04-16 22:48 | 29.45743 | -106.34282 | 10347 ft | 125 kts | 356° |
| 2026-04-16 22:48 | 29.46613 | -106.34329 | 10346 ft | 125 kts | 356° |
| 2026-04-16 22:48 | 29.47480 | -106.34375 | 10345 ft | 124 kts | 356° |
| 2026-04-16 22:48 | 29.48335 | -106.34421 | 10344 ft | 124 kts | 356° |
| 2026-04-16 22:49 | 29.49200 | -106.34466 | 10344 ft | 124 kts | 356° |
| 2026-04-16 22:49 | 29.50062 | -106.34512 | 10343 ft | 123 kts | 356° |
| 2026-04-16 22:49 | 29.50922 | -106.34557 | 10345 ft | 123 kts | 356° |
| 2026-04-16 22:49 | 29.51777 | -106.34602 | 10346 ft | 125 kts | 356° |
| 2026-04-16 22:50 | 29.52652 | -106.34649 | 10348 ft | 126 kts | 356° |
| 2026-04-16 22:50 | 29.53535 | -106.34696 | 10348 ft | 127 kts | 356° |
| 2026-04-16 22:50 | 29.54413 | -106.34747 | 10346 ft | 126 kts | 356° |
| 2026-04-16 22:50 | 29.55278 | -106.34794 | 10347 ft | 125 kts | 356° |
| 2026-04-16 22:51 | 29.56151 | -106.34842 | 10346 ft | 125 kts | 356° |
| 2026-04-16 22:51 | 29.57023 | -106.34890 | 10346 ft | 125 kts | 356° |
| 2026-04-16 22:51 | 29.57893 | -106.34937 | 10345 ft | 125 kts | 356° |
| 2026-04-16 22:51 | 29.58761 | -106.34984 | 10345 ft | 124 kts | 356° |
| 2026-04-16 22:52 | 29.59613 | -106.35029 | 10344 ft | 124 kts | 356° |
| 2026-04-16 22:52 | 29.60476 | -106.35076 | 10344 ft | 124 kts | 356° |
| 2026-04-16 22:52 | 29.61341 | -106.35122 | 10343 ft | 124 kts | 356° |
| 2026-04-16 22:52 | 29.62205 | -106.35168 | 10344 ft | 124 kts | 356° |
| 2026-04-16 22:53 | 29.63069 | -106.35213 | 10344 ft | 124 kts | 356° |
| 2026-04-16 22:53 | 29.63931 | -106.35259 | 10344 ft | 124 kts | 356° |
| 2026-04-16 22:53 | 29.64786 | -106.35304 | 10343 ft | 124 kts | 356° |
| 2026-04-16 22:53 | 29.65649 | -106.35348 | 10341 ft | 123 kts | 356° |
| 2026-04-16 22:54 | 29.66503 | -106.35393 | 10343 ft | 123 kts | 356° |
| 2026-04-16 22:54 | 29.67354 | -106.35437 | 10342 ft | 124 kts | 356° |
| 2026-04-16 22:54 | 29.68214 | -106.35481 | 10342 ft | 124 kts | 356° |
| 2026-04-16 22:54 | 29.69077 | -106.35526 | 10343 ft | 124 kts | 356° |
| 2026-04-16 22:55 | 29.69940 | -106.35571 | 10342 ft | 124 kts | 356° |
| 2026-04-16 22:55 | 29.70789 | -106.35615 | 10342 ft | 123 kts | 356° |
| 2026-04-16 22:55 | 29.71649 | -106.35659 | 10342 ft | 123 kts | 356° |
| 2026-04-16 22:55 | 29.72508 | -106.35703 | 10343 ft | 123 kts | 356° |
| 2026-04-16 22:56 | 29.73369 | -106.35748 | 10342 ft | 123 kts | 356° |
| 2026-04-16 22:56 | 29.74229 | -106.35792 | 10342 ft | 123 kts | 356° |
| 2026-04-16 22:56 | 29.75081 | -106.35837 | 10343 ft | 124 kts | 356° |
| 2026-04-16 22:56 | 29.75945 | -106.35882 | 10343 ft | 124 kts | 356° |
| 2026-04-16 22:57 | 29.76809 | -106.35927 | 10344 ft | 124 kts | 356° |
| 2026-04-16 22:57 | 29.77661 | -106.35971 | 10344 ft | 124 kts | 356° |
| 2026-04-16 22:57 | 29.78527 | -106.36016 | 10343 ft | 124 kts | 356° |
| 2026-04-16 22:57 | 29.79391 | -106.36062 | 10344 ft | 124 kts | 356° |
| 2026-04-16 22:58 | 29.80259 | -106.36107 | 10344 ft | 124 kts | 356° |
| 2026-04-16 22:58 | 29.81113 | -106.36151 | 10343 ft | 124 kts | 356° |
| 2026-04-16 22:58 | 29.81974 | -106.36196 | 10343 ft | 124 kts | 356° |
| 2026-04-16 22:58 | 29.82836 | -106.36241 | 10343 ft | 124 kts | 356° |
| 2026-04-16 22:59 | 29.83698 | -106.36285 | 10344 ft | 124 kts | 356° |
| 2026-04-16 22:59 | 29.84563 | -106.36330 | 10343 ft | 124 kts | 356° |
| 2026-04-16 22:59 | 29.85415 | -106.36374 | 10342 ft | 124 kts | 356° |
| 2026-04-16 22:59 | 29.86275 | -106.36419 | 10342 ft | 123 kts | 356° |
| 2026-04-16 23:00 | 29.87133 | -106.36463 | 10342 ft | 123 kts | 356° |
| 2026-04-16 23:00 | 29.87991 | -106.36508 | 10342 ft | 123 kts | 356° |
| 2026-04-16 23:00 | 29.88849 | -106.36552 | 10342 ft | 123 kts | 356° |
| 2026-04-16 23:00 | 29.89698 | -106.36597 | 10342 ft | 123 kts | 356° |
| 2026-04-16 23:01 | 29.90560 | -106.36642 | 10342 ft | 124 kts | 356° |
| 2026-04-16 23:01 | 29.91417 | -106.36687 | 10380 ft | 120 kts | 356° |
| 2026-04-16 23:01 | 29.92256 | -106.36731 | 10392 ft | 121 kts | 356° |
| 2026-04-16 23:01 | 29.93102 | -106.36774 | 10392 ft | 122 kts | 356° |
| 2026-04-16 23:02 | 29.93953 | -106.36819 | 10392 ft | 123 kts | 356° |
| 2026-04-16 23:02 | 29.94796 | -106.36863 | 10393 ft | 123 kts | 356° |
| 2026-04-16 23:02 | 29.95656 | -106.36908 | 10395 ft | 124 kts | 356° |
| 2026-04-16 23:02 | 29.96518 | -106.36952 | 10396 ft | 124 kts | 356° |
| 2026-04-16 23:03 | 29.97384 | -106.36998 | 10395 ft | 124 kts | 356° |
| 2026-04-16 23:03 | 29.98245 | -106.37043 | 10396 ft | 124 kts | 356° |
| 2026-04-16 23:03 | 29.99095 | -106.37088 | 10396 ft | 124 kts | 356° |
| 2026-04-16 23:03 | 29.99958 | -106.37132 | 10395 ft | 124 kts | 356° |
| 2026-04-16 23:04 | 30.00814 | -106.37177 | 10394 ft | 123 kts | 356° |
| 2026-04-16 23:04 | 30.01669 | -106.37221 | 10394 ft | 123 kts | 356° |
| 2026-04-16 23:04 | 30.02525 | -106.37266 | 10395 ft | 123 kts | 356° |
| 2026-04-16 23:04 | 30.03383 | -106.37311 | 10395 ft | 123 kts | 356° |
| 2026-04-16 23:05 | 30.04241 | -106.37355 | 10395 ft | 124 kts | 356° |
| 2026-04-16 23:05 | 30.05102 | -106.37400 | 10395 ft | 124 kts | 356° |
| 2026-04-16 23:05 | 30.05963 | -106.37446 | 10397 ft | 124 kts | 356° |
| 2026-04-16 23:05 | 30.06818 | -106.37490 | 10396 ft | 124 kts | 356° |
| 2026-04-16 23:06 | 30.07682 | -106.37534 | 10396 ft | 124 kts | 356° |
| 2026-04-16 23:06 | 30.08543 | -106.37578 | 10395 ft | 123 kts | 356° |
| 2026-04-16 23:06 | 30.09405 | -106.37623 | 10395 ft | 123 kts | 356° |
| 2026-04-16 23:06 | 30.10254 | -106.37668 | 10396 ft | 123 kts | 356° |
| 2026-04-16 23:07 | 30.11113 | -106.37712 | 10395 ft | 123 kts | 356° |
| 2026-04-16 23:07 | 30.11971 | -106.37756 | 10395 ft | 123 kts | 356° |
| 2026-04-16 23:07 | 30.12831 | -106.37801 | 10396 ft | 123 kts | 356° |
| 2026-04-16 23:07 | 30.13689 | -106.37845 | 10396 ft | 124 kts | 356° |
| 2026-04-16 23:08 | 30.14552 | -106.37889 | 10397 ft | 124 kts | 356° |
| 2026-04-16 23:08 | 30.15417 | -106.37934 | 10396 ft | 124 kts | 356° |
| 2026-04-16 23:08 | 30.16271 | -106.37979 | 10397 ft | 124 kts | 356° |
| 2026-04-16 23:08 | 30.17137 | -106.38024 | 10397 ft | 124 kts | 356° |
| 2026-04-16 23:09 | 30.18001 | -106.38069 | 10397 ft | 124 kts | 356° |
| 2026-04-16 23:09 | 30.18573 | -106.38099 | 10396 ft | 124 kts | 356° |
| 2026-04-16 23:09 | 30.19715 | -106.38158 | 10397 ft | 124 kts | 356° |
| 2026-04-16 23:09 | 30.20578 | -106.38203 | 10396 ft | 124 kts | 356° |
| 2026-04-16 23:10 | 30.21148 | -106.38232 | 10397 ft | 124 kts | 356° |
| 2026-04-16 23:10 | 30.22013 | -106.38277 | 10397 ft | 124 kts | 356° |
| 2026-04-16 23:10 | 30.22878 | -106.38323 | 10396 ft | 124 kts | 356° |
| 2026-04-16 23:10 | 30.24022 | -106.38382 | 10396 ft | 124 kts | 356° |
| 2026-04-16 23:11 | 30.24605 | -106.38412 | 10396 ft | 124 kts | 356° |
| 2026-04-16 23:11 | 30.25466 | -106.38457 | 10396 ft | 123 kts | 356° |
| 2026-04-16 23:11 | 30.26319 | -106.38502 | 10397 ft | 124 kts | 356° |
| 2026-04-16 23:11 | 30.27183 | -106.38547 | 10397 ft | 124 kts | 356° |
| 2026-04-16 23:12 | 30.28051 | -106.38593 | 10397 ft | 124 kts | 356° |
| 2026-04-16 23:12 | 30.28906 | -106.38638 | 10398 ft | 124 kts | 356° |
| 2026-04-16 23:12 | 30.29776 | -106.38684 | 10396 ft | 124 kts | 356° |
| 2026-04-16 23:12 | 30.30636 | -106.38729 | 10397 ft | 124 kts | 356° |
| 2026-04-16 23:13 | 30.31489 | -106.38774 | 10396 ft | 124 kts | 356° |
| 2026-04-16 23:13 | 30.32352 | -106.38819 | 10397 ft | 124 kts | 356° |
| 2026-04-16 23:13 | 30.33216 | -106.38864 | 10397 ft | 124 kts | 356° |
| 2026-04-16 23:13 | 30.34081 | -106.38909 | 10397 ft | 124 kts | 356° |
| 2026-04-16 23:14 | 30.34944 | -106.38954 | 10397 ft | 124 kts | 356° |
| 2026-04-16 23:14 | 30.35809 | -106.39000 | 10396 ft | 124 kts | 356° |
| 2026-04-16 23:14 | 30.36671 | -106.39046 | 10398 ft | 124 kts | 356° |
| 2026-04-16 23:14 | 30.37536 | -106.39091 | 10397 ft | 125 kts | 356° |
| 2026-04-16 23:15 | 30.39253 | -106.39182 | 10396 ft | 124 kts | 356° |
| 2026-04-16 23:15 | 30.40112 | -106.39227 | 10395 ft | 123 kts | 356° |
| 2026-04-16 23:15 | 30.40969 | -106.39272 | 10397 ft | 124 kts | 356° |
| 2026-04-16 23:16 | 30.41830 | -106.39317 | 10396 ft | 124 kts | 356° |
| 2026-04-16 23:16 | 30.42695 | -106.39362 | 10397 ft | 124 kts | 356° |
| 2026-04-16 23:16 | 30.43560 | -106.39408 | 10397 ft | 124 kts | 356° |
| 2026-04-16 23:16 | 30.44424 | -106.39454 | 10398 ft | 124 kts | 356° |
| 2026-04-16 23:17 | 30.45290 | -106.39499 | 10397 ft | 124 kts | 356° |
| 2026-04-16 23:17 | 30.46155 | -106.39545 | 10398 ft | 124 kts | 356° |
| 2026-04-16 23:17 | 30.47009 | -106.39591 | 10397 ft | 124 kts | 356° |
| 2026-04-16 23:17 | 30.47873 | -106.39637 | 10397 ft | 124 kts | 356° |
| 2026-04-16 23:18 | 30.48727 | -106.39681 | 10446 ft | 120 kts | 356° |
| 2026-04-16 23:18 | 30.49550 | -106.39724 | 10492 ft | 118 kts | 356° |
| 2026-04-16 23:18 | 30.50384 | -106.39767 | 10492 ft | 121 kts | 356° |
| 2026-04-16 23:18 | 30.51219 | -106.39811 | 10492 ft | 122 kts | 356° |
| 2026-04-16 23:19 | 30.52073 | -106.39855 | 10494 ft | 122 kts | 356° |
| 2026-04-16 23:19 | 30.52928 | -106.39900 | 10495 ft | 123 kts | 356° |
| 2026-04-16 23:19 | 30.53784 | -106.39944 | 10496 ft | 123 kts | 356° |
| 2026-04-16 23:19 | 30.54633 | -106.39989 | 10497 ft | 124 kts | 356° |
| 2026-04-16 23:20 | 30.55497 | -106.40035 | 10497 ft | 124 kts | 356° |
| 2026-04-16 23:20 | 30.56357 | -106.40080 | 10498 ft | 124 kts | 356° |
| 2026-04-16 23:20 | 30.57217 | -106.40125 | 10498 ft | 124 kts | 356° |
| 2026-04-16 23:20 | 30.58081 | -106.40170 | 10498 ft | 124 kts | 356° |
| 2026-04-16 23:21 | 30.58944 | -106.40215 | 10498 ft | 124 kts | 356° |
| 2026-04-16 23:21 | 30.59797 | -106.40260 | 10498 ft | 124 kts | 356° |
| 2026-04-16 23:21 | 30.60660 | -106.40305 | 10499 ft | 124 kts | 356° |
| 2026-04-16 23:21 | 30.61524 | -106.40351 | 10499 ft | 124 kts | 356° |
| 2026-04-16 23:22 | 30.62390 | -106.40396 | 10499 ft | 124 kts | 356° |
| 2026-04-16 23:22 | 30.63255 | -106.40442 | 10498 ft | 124 kts | 356° |
| 2026-04-16 23:22 | 30.64115 | -106.40487 | 10498 ft | 123 kts | 356° |
| 2026-04-16 23:22 | 30.64964 | -106.40533 | 10498 ft | 123 kts | 356° |
| 2026-04-16 23:23 | 30.65824 | -106.40579 | 10498 ft | 124 kts | 356° |
| 2026-04-16 23:23 | 30.66686 | -106.40626 | 10498 ft | 124 kts | 356° |
| 2026-04-16 23:23 | 30.67545 | -106.40672 | 10497 ft | 123 kts | 356° |
| 2026-04-16 23:23 | 30.68402 | -106.40718 | 10497 ft | 123 kts | 356° |
| 2026-04-16 23:24 | 30.69251 | -106.40764 | 10497 ft | 124 kts | 356° |
| 2026-04-16 23:24 | 30.70114 | -106.40810 | 10498 ft | 124 kts | 356° |
| 2026-04-16 23:24 | 30.70979 | -106.40857 | 10498 ft | 124 kts | 356° |
| 2026-04-16 23:24 | 30.71828 | -106.40902 | 10497 ft | 123 kts | 356° |
| 2026-04-16 23:25 | 30.72689 | -106.40949 | 10497 ft | 123 kts | 356° |
| 2026-04-16 23:25 | 30.73548 | -106.40995 | 10497 ft | 123 kts | 356° |
| 2026-04-16 23:25 | 30.74394 | -106.41041 | 10497 ft | 123 kts | 356° |
| 2026-04-16 23:25 | 30.75256 | -106.41087 | 10498 ft | 124 kts | 356° |
| 2026-04-16 23:26 | 30.76119 | -106.41133 | 10498 ft | 124 kts | 356° |
| 2026-04-16 23:26 | 30.76979 | -106.41179 | 10497 ft | 123 kts | 356° |
| 2026-04-16 23:26 | 30.77828 | -106.41225 | 10498 ft | 123 kts | 356° |
| 2026-04-16 23:26 | 30.78693 | -106.41271 | 10499 ft | 124 kts | 356° |
| 2026-04-16 23:27 | 30.79556 | -106.41318 | 10499 ft | 124 kts | 356° |
| 2026-04-16 23:27 | 30.80421 | -106.41364 | 10500 ft | 125 kts | 356° |
| 2026-04-16 23:27 | 30.81288 | -106.41411 | 10499 ft | 124 kts | 356° |
| 2026-04-16 23:27 | 30.82151 | -106.41457 | 10499 ft | 124 kts | 356° |
| 2026-04-16 23:28 | 30.83017 | -106.41504 | 10498 ft | 124 kts | 356° |
| 2026-04-16 23:28 | 30.83870 | -106.41549 | 10498 ft | 123 kts | 356° |
| 2026-04-16 23:28 | 30.84724 | -106.41595 | 10498 ft | 124 kts | 356° |
| 2026-04-16 23:28 | 30.85585 | -106.41641 | 10498 ft | 124 kts | 356° |
| 2026-04-16 23:29 | 30.86449 | -106.41688 | 10498 ft | 124 kts | 356° |
| 2026-04-16 23:29 | 30.87311 | -106.41734 | 10498 ft | 124 kts | 356° |
| 2026-04-16 23:29 | 30.88163 | -106.41780 | 10498 ft | 124 kts | 356° |
| 2026-04-16 23:29 | 30.89028 | -106.41826 | 10499 ft | 124 kts | 356° |
| 2026-04-16 23:30 | 30.89893 | -106.41873 | 10498 ft | 124 kts | 356° |
| 2026-04-16 23:30 | 30.90756 | -106.41919 | 10500 ft | 124 kts | 356° |
| 2026-04-16 23:30 | 30.91611 | -106.41964 | 10500 ft | 124 kts | 356° |
| 2026-04-16 23:30 | 30.92478 | -106.42011 | 10499 ft | 125 kts | 356° |
| 2026-04-16 23:31 | 30.93344 | -106.42057 | 10499 ft | 124 kts | 356° |
| 2026-04-16 23:31 | 30.94207 | -106.42103 | 10498 ft | 124 kts | 356° |
| 2026-04-16 23:31 | 30.95068 | -106.42149 | 10498 ft | 123 kts | 356° |
| 2026-04-16 23:31 | 30.95927 | -106.42195 | 10497 ft | 123 kts | 356° |
| 2026-04-16 23:32 | 30.96784 | -106.42240 | 10498 ft | 124 kts | 356° |
| 2026-04-16 23:32 | 30.97638 | -106.42286 | 10497 ft | 124 kts | 356° |
| 2026-04-16 23:32 | 30.98501 | -106.42332 | 10497 ft | 123 kts | 356° |
| 2026-04-16 23:32 | 30.99355 | -106.42378 | 10496 ft | 123 kts | 356° |
| 2026-04-16 23:33 | 31.00211 | -106.42424 | 10496 ft | 123 kts | 356° |
| 2026-04-16 23:33 | 31.01070 | -106.42470 | 10497 ft | 123 kts | 356° |
| 2026-04-16 23:33 | 31.01920 | -106.42516 | 10496 ft | 123 kts | 356° |
| 2026-04-16 23:33 | 31.02780 | -106.42562 | 10497 ft | 124 kts | 356° |
| 2026-04-16 23:34 | 31.03638 | -106.42607 | 10496 ft | 123 kts | 356° |
| 2026-04-16 23:34 | 31.04495 | -106.42652 | 10497 ft | 123 kts | 356° |
| 2026-04-16 23:34 | 31.05351 | -106.42697 | 10496 ft | 123 kts | 356° |
| 2026-04-16 23:34 | 31.06208 | -106.42743 | 10496 ft | 123 kts | 356° |
| 2026-04-16 23:35 | 31.07065 | -106.42788 | 10497 ft | 123 kts | 356° |
| 2026-04-16 23:35 | 31.07914 | -106.42831 | 10499 ft | 124 kts | 356° |
| 2026-04-16 23:35 | 31.08781 | -106.42876 | 10498 ft | 125 kts | 356° |
| 2026-04-16 23:35 | 31.09647 | -106.42922 | 10497 ft | 124 kts | 356° |
| 2026-04-16 23:36 | 31.10508 | -106.42967 | 10498 ft | 124 kts | 356° |
| 2026-04-16 23:36 | 31.11361 | -106.43012 | 10499 ft | 124 kts | 356° |
| 2026-04-16 23:36 | 31.12228 | -106.43058 | 10498 ft | 124 kts | 356° |
| 2026-04-16 23:36 | 31.13092 | -106.43104 | 10498 ft | 124 kts | 356° |
| 2026-04-16 23:37 | 31.13953 | -106.43149 | 10498 ft | 124 kts | 356° |
| 2026-04-16 23:37 | 31.14815 | -106.43194 | 10497 ft | 124 kts | 356° |
| 2026-04-16 23:37 | 31.15674 | -106.43239 | 10498 ft | 123 kts | 356° |
| 2026-04-16 23:37 | 31.16523 | -106.43284 | 10497 ft | 124 kts | 356° |
| 2026-04-16 23:38 | 31.17387 | -106.43329 | 10499 ft | 124 kts | 356° |
| 2026-04-16 23:38 | 31.18255 | -106.43375 | 10498 ft | 124 kts | 356° |
| 2026-04-16 23:38 | 31.19108 | -106.43419 | 10498 ft | 124 kts | 356° |
| 2026-04-16 23:38 | 31.19974 | -106.43465 | 10499 ft | 124 kts | 356° |
| 2026-04-16 23:39 | 31.20842 | -106.43510 | 10499 ft | 125 kts | 356° |
| 2026-04-16 23:39 | 31.21698 | -106.43555 | 10498 ft | 124 kts | 356° |
| 2026-04-16 23:39 | 31.22561 | -106.43600 | 10498 ft | 124 kts | 356° |
| 2026-04-16 23:39 | 31.23424 | -106.43646 | 10498 ft | 124 kts | 356° |
| 2026-04-16 23:40 | 31.24288 | -106.43691 | 10470 ft | 126 kts | 356° |
| 2026-04-16 23:40 | 31.25192 | -106.43739 | 10328 ft | 132 kts | 356° |
| 2026-04-16 23:40 | 31.26118 | -106.43788 | 10182 ft | 134 kts | 356° |
| 2026-04-16 23:40 | 31.27043 | -106.43838 | 10024 ft | 136 kts | 356° |
| 2026-04-16 23:41 | 31.27994 | -106.43888 | 9851 ft | 137 kts | 356° |
| 2026-04-16 23:41 | 31.28950 | -106.43938 | 9678 ft | 138 kts | 356° |
| 2026-04-16 23:41 | 31.29908 | -106.43989 | 9503 ft | 137 kts | 356° |
| 2026-04-16 23:41 | 31.30866 | -106.44039 | 9331 ft | 138 kts | 356° |
| 2026-04-16 23:42 | 31.31816 | -106.44088 | 9157 ft | 138 kts | 356° |
| 2026-04-16 23:42 | 31.32778 | -106.44137 | 8986 ft | 139 kts | 356° |
| 2026-04-16 23:42 | 31.33757 | -106.44187 | 8736 ft | 144 kts | 356° |
| 2026-04-16 23:42 | 31.34754 | -106.44236 | 8393 ft | 139 kts | 356° |
| 2026-04-16 23:43 | 31.35700 | -106.44284 | 8038 ft | 133 kts | 356° |
| 2026-04-16 23:43 | 31.36617 | -106.44282 | 7659 ft | 131 kts | 5° |
| 2026-04-16 23:43 | 31.37498 | -106.44028 | 7228 ft | 133 kts | 17° |
| 2026-04-16 23:43 | 31.38372 | -106.43718 | 6908 ft | 128 kts | 14° |
| 2026-04-16 23:44 | 31.39184 | -106.43467 | 6768 ft | 114 kts | 13° |
| 2026-04-16 23:44 | 31.39924 | -106.43241 | 6632 ft | 107 kts | 13° |
| 2026-04-16 23:44 | 31.40707 | -106.43001 | 6516 ft | 126 kts | 13° |
| 2026-04-16 23:44 | 31.41561 | -106.42744 | 6510 ft | 129 kts | 13° |
| 2026-04-16 23:45 | 31.42438 | -106.42480 | 6507 ft | 131 kts | 13° |
| 2026-04-16 23:45 | 31.43316 | -106.42216 | 6508 ft | 129 kts | 13° |
| 2026-04-16 23:45 | 31.44182 | -106.41955 | 6508 ft | 128 kts | 13° |
| 2026-04-16 23:45 | 31.45044 | -106.41695 | 6509 ft | 127 kts | 13° |
| 2026-04-16 23:46 | 31.45905 | -106.41433 | 6509 ft | 128 kts | 13° |
| 2026-04-16 23:46 | 31.46765 | -106.41172 | 6506 ft | 130 kts | 13° |
| 2026-04-16 23:46 | 31.47636 | -106.40908 | 6507 ft | 128 kts | 14° |
| 2026-04-16 23:46 | 31.48504 | -106.40645 | 6507 ft | 129 kts | 13° |
| 2026-04-16 23:47 | 31.49372 | -106.40383 | 6505 ft | 127 kts | 13° |
| 2026-04-16 23:47 | 31.50219 | -106.40126 | 6503 ft | 127 kts | 13° |
| 2026-04-16 23:47 | 31.51072 | -106.39869 | 6504 ft | 126 kts | 13° |
| 2026-04-16 23:47 | 31.51930 | -106.39613 | 6463 ft | 128 kts | 13° |
| 2026-04-16 23:48 | 31.52775 | -106.39361 | 6385 ft | 122 kts | 13° |
| 2026-04-16 23:48 | 31.53577 | -106.39121 | 6308 ft | 119 kts | 13° |
| 2026-04-16 23:48 | 31.54377 | -106.38882 | 6231 ft | 118 kts | 13° |
| 2026-04-16 23:48 | 31.55175 | -106.38643 | 6152 ft | 118 kts | 13° |
| 2026-04-16 23:49 | 31.55970 | -106.38403 | 6075 ft | 117 kts | 13° |
| 2026-04-16 23:49 | 31.56762 | -106.38164 | 6000 ft | 117 kts | 13° |
| 2026-04-16 23:49 | 31.57540 | -106.37928 | 5921 ft | 116 kts | 13° |
| 2026-04-16 23:49 | 31.58332 | -106.37690 | 5780 ft | 120 kts | 13° |
| 2026-04-16 23:50 | 31.59131 | -106.37452 | 5628 ft | 115 kts | 13° |
| 2026-04-16 23:50 | 31.59895 | -106.37223 | 5470 ft | 111 kts | 13° |
| 2026-04-16 23:50 | 31.60629 | -106.37002 | 5314 ft | 107 kts | 14° |
| 2026-04-16 23:50 | 31.61358 | -106.36858 | 5150 ft | 105 kts | 1° |
| 2026-04-16 23:51 | 31.61977 | -106.37162 | 5046 ft | 96 kts | 310° |
| 2026-04-16 23:51 | 31.62368 | -106.37766 | 4950 ft | 95 kts | 306° |
| 2026-04-16 23:51 | 31.62750 | -106.38387 | 4904 ft | 92 kts | 303° |
| 2026-04-16 23:51 | 31.63119 | -106.39020 | 4817 ft | 95 kts | 304° |
| 2026-04-16 23:52 | 31.63657 | -106.39365 | 4741 ft | 93 kts | 360° |
| 2026-04-16 23:52 | 31.64263 | -106.39092 | 4689 ft | 92 kts | 33° |
| 2026-04-16 23:52 | 31.64782 | -106.38671 | 4680 ft | 90 kts | 34° |
| 2026-04-16 23:52 | 31.65270 | -106.38271 | 4718 ft | 90 kts | 34° |
| 2026-04-16 23:53 | 31.65808 | -106.37809 | 4729 ft | 97 kts | 36° |
| 2026-04-16 23:53 | 31.66372 | -106.37375 | 4767 ft | 90 kts | 16° |
| 2026-04-16 23:53 | 31.66945 | -106.37536 | 4730 ft | 87 kts | 314° |
| 2026-04-16 23:53 | 31.67205 | -106.38184 | 4706 ft | 88 kts | 283° |
| 2026-04-16 23:54 | 31.67359 | -106.38874 | 4651 ft | 88 kts | 277° |
| 2026-04-16 23:54 | 31.67152 | -106.39495 | 4568 ft | 89 kts | 230° |
| 2026-04-16 23:54 | 31.66695 | -106.40008 | 4452 ft | 91 kts | 223° |
| 2026-04-16 23:54 | 31.66222 | -106.40482 | 4337 ft | 88 kts | 220° |
| 2026-04-16 23:55 | 31.65755 | -106.40918 | 4208 ft | 81 kts | 218° |
| 2026-04-16 23:55 | 31.65338 | -106.41302 | 4079 ft | 75 kts | 219° |
| 2026-04-16 23:55 | 31.64929 | -106.41682 | 3957 ft | 70 kts | 218° |
| 2026-04-16 23:55 | 31.64598 | -106.41990 | 3892 ft | 49 kts | 219° |
| 2026-04-16 23:56 | 31.64371 | -106.42198 | 3894 ft | 38 kts | 217° |
| 2026-04-16 23:56 | 31.64158 | -106.42392 | 3896 ft | 40 kts | 218° |
| 2026-04-16 23:56 | 31.63930 | -106.42600 | 3895 ft | 43 kts | 219° |
| 2026-04-16 23:56 | 31.63705 | -106.42809 | 3895 ft | 37 kts | 218° |
| 2026-04-16 23:57 | 31.63591 | -106.42993 | 3895 ft | 24 kts | 245° |
| 2026-04-16 23:57 | 31.63533 | -106.43145 | 3894 ft | 17 kts | 248° |
| 2026-04-16 23:57 | 31.63493 | -106.43255 | 3895 ft | 13 kts | 256° |
| 2026-04-16 23:57 | 31.63516 | -106.43353 | 3895 ft | 13 kts | 307° |
| 2026-04-16 23:58 | 31.63588 | -106.43362 | 3896 ft | 12 kts | 38° |
| 2026-04-16 23:58 | 31.63658 | -106.43303 | 3895 ft | 13 kts | 27° |
| 2026-04-16 23:58 | 31.63747 | -106.43277 | 3898 ft | 13 kts | 17° |
| 2026-04-16 23:58 | 31.63800 | -106.43320 | 3897 ft | 12 kts | 290° |
| 2026-04-16 23:59 | 31.63806 | -106.43387 | 3899 ft | 14 kts | 276° |
| 2026-04-16 23:59 | 31.63849 | -106.43425 | 3900 ft | 0 kts | 18° |